sensor_id;sensor_type;location;lat;lon;timestamp;temperature;humidity
13697;DHT22;6920;50.080;8.226;2022-07-29T00:00:47;18.70;99.90
13697;DHT22;6920;50.080;8.226;2022-07-29T00:03:14;18.60;99.90
13697;DHT22;6920;50.080;8.226;2022-07-29T00:05:42;18.60;99.90
13697;DHT22;6920;50.080;8.226;2022-07-29T00:08:09;18.50;99.90
13697;DHT22;6920;50.080;8.226;2022-07-29T00:10:36;18.40;99.90
13697;DHT22;6920;50.080;8.226;2022-07-29T00:13:03;18.20;99.90
13697;DHT22;6920;50.080;8.226;2022-07-29T00:15:31;18.10;99.90
13697;DHT22;6920;50.080;8.226;2022-07-29T00:17:58;18.20;99.90
13697;DHT22;6920;50.080;8.226;2022-07-29T00:20:25;18.10;99.90
13697;DHT22;6920;50.080;8.226;2022-07-29T00:22:53;18.10;99.90
13697;DHT22;6920;50.080;8.226;2022-07-29T00:25:20;18.20;99.90
13697;DHT22;6920;50.080;8.226;2022-07-29T00:27:47;18.30;99.90
13697;DHT22;6920;50.080;8.226;2022-07-29T00:30:14;18.40;99.90
13697;DHT22;6920;50.080;8.226;2022-07-29T00:32:43;18.40;99.90
13697;DHT22;6920;50.080;8.226;2022-07-29T00:35:09;18.50;99.90
13697;DHT22;6920;50.080;8.226;2022-07-29T00:37:54;18.50;99.90
13697;DHT22;6920;50.080;8.226;2022-07-29T00:40:21;18.50;99.90
13697;DHT22;6920;50.080;8.226;2022-07-29T00:42:51;18.50;99.90
13697;DHT22;6920;50.080;8.226;2022-07-29T00:45:18;18.60;99.90
13697;DHT22;6920;50.080;8.226;2022-07-29T00:47:47;18.50;99.90
13697;DHT22;6920;50.080;8.226;2022-07-29T00:50:14;18.60;99.90
13697;DHT22;6920;50.080;8.226;2022-07-29T00:52:42;18.60;99.90
13697;DHT22;6920;50.080;8.226;2022-07-29T00:55:11;18.40;99.90
13697;DHT22;6920;50.080;8.226;2022-07-29T00:57:40;18.40;99.90
13697;DHT22;6920;50.080;8.226;2022-07-29T01:00:10;18.30;99.90
13697;DHT22;6920;50.080;8.226;2022-07-29T01:02:37;18.30;99.90
13697;DHT22;6920;50.080;8.226;2022-07-29T01:05:06;18.20;99.90
13697;DHT22;6920;50.080;8.226;2022-07-29T01:07:34;18.20;99.90
13697;DHT22;6920;50.080;8.226;2022-07-29T01:10:02;18.30;99.90
13697;DHT22;6920;50.080;8.226;2022-07-29T01:12:31;18.30;99.90
13697;DHT22;6920;50.080;8.226;2022-07-29T01:15:00;18.30;99.90
13697;DHT22;6920;50.080;8.226;2022-07-29T01:17:32;18.00;99.90
13697;DHT22;6920;50.080;8.226;2022-07-29T01:20:05;18.00;99.90
13697;DHT22;6920;50.080;8.226;2022-07-29T01:22:53;18.10;99.90
13697;DHT22;6920;50.080;8.226;2022-07-29T01:25:50;18.20;99.90
13697;DHT22;6920;50.080;8.226;2022-07-29T01:28:59;18.20;99.90
13697;DHT22;6920;50.080;8.226;2022-07-29T01:31:33;18.20;99.90
13697;DHT22;6920;50.080;8.226;2022-07-29T01:34:05;18.30;99.90
13697;DHT22;6920;50.080;8.226;2022-07-29T01:36:36;18.30;99.90
13697;DHT22;6920;50.080;8.226;2022-07-29T01:39:08;18.20;99.90
13697;DHT22;6920;50.080;8.226;2022-07-29T01:41:40;18.10;99.90
13697;DHT22;6920;50.080;8.226;2022-07-29T01:44:14;18.10;99.90
13697;DHT22;6920;50.080;8.226;2022-07-29T01:46:46;18.10;99.90
13697;DHT22;6920;50.080;8.226;2022-07-29T01:49:18;18.00;99.90
13697;DHT22;6920;50.080;8.226;2022-07-29T01:51:50;18.20;99.90
13697;DHT22;6920;50.080;8.226;2022-07-29T01:54:21;18.30;99.90
13697;DHT22;6920;50.080;8.226;2022-07-29T01:56:53;18.30;99.90
13697;DHT22;6920;50.080;8.226;2022-07-29T01:59:23;18.30;99.90
13697;DHT22;6920;50.080;8.226;2022-07-29T02:01:54;18.20;99.90
13697;DHT22;6920;50.080;8.226;2022-07-29T02:04:21;18.00;99.90
13697;DHT22;6920;50.080;8.226;2022-07-29T02:06:51;17.80;99.90
13697;DHT22;6920;50.080;8.226;2022-07-29T02:09:21;17.60;99.90
13697;DHT22;6920;50.080;8.226;2022-07-29T02:11:52;17.60;99.90
13697;DHT22;6920;50.080;8.226;2022-07-29T02:14:23;17.40;99.90
13697;DHT22;6920;50.080;8.226;2022-07-29T02:16:53;17.50;99.90
13697;DHT22;6920;50.080;8.226;2022-07-29T02:19:22;17.50;99.90
13697;DHT22;6920;50.080;8.226;2022-07-29T02:21:51;17.50;99.90
13697;DHT22;6920;50.080;8.226;2022-07-29T02:24:21;17.50;99.90
13697;DHT22;6920;50.080;8.226;2022-07-29T02:26:50;17.40;99.90
13697;DHT22;6920;50.080;8.226;2022-07-29T02:29:20;17.40;99.90
13697;DHT22;6920;50.080;8.226;2022-07-29T02:31:50;17.40;99.90
13697;DHT22;6920;50.080;8.226;2022-07-29T02:34:20;17.30;99.90
13697;DHT22;6920;50.080;8.226;2022-07-29T02:36:47;17.40;99.90
13697;DHT22;6920;50.080;8.226;2022-07-29T02:39:15;17.40;99.90
13697;DHT22;6920;50.080;8.226;2022-07-29T02:41:46;17.50;99.90
13697;DHT22;6920;50.080;8.226;2022-07-29T02:44:15;17.60;99.90
13697;DHT22;6920;50.080;8.226;2022-07-29T02:46:48;17.60;99.90
13697;DHT22;6920;50.080;8.226;2022-07-29T02:49:26;17.70;99.90
13697;DHT22;6920;50.080;8.226;2022-07-29T02:51:58;17.70;99.90
13697;DHT22;6920;50.080;8.226;2022-07-29T02:54:31;17.70;99.90
13697;DHT22;6920;50.080;8.226;2022-07-29T02:57:04;17.70;99.90
13697;DHT22;6920;50.080;8.226;2022-07-29T02:59:34;17.70;99.90
13697;DHT22;6920;50.080;8.226;2022-07-29T03:02:05;17.60;99.90
13697;DHT22;6920;50.080;8.226;2022-07-29T03:04:34;17.60;99.90
13697;DHT22;6920;50.080;8.226;2022-07-29T03:07:02;17.60;99.90
13697;DHT22;6920;50.080;8.226;2022-07-29T03:09:30;17.50;99.90
13697;DHT22;6920;50.080;8.226;2022-07-29T03:11:57;17.50;99.90
13697;DHT22;6920;50.080;8.226;2022-07-29T03:14:24;17.50;99.90
13697;DHT22;6920;50.080;8.226;2022-07-29T03:16:52;17.30;99.90
13697;DHT22;6920;50.080;8.226;2022-07-29T03:19:20;17.20;99.90
13697;DHT22;6920;50.080;8.226;2022-07-29T03:21:49;17.00;99.90
13697;DHT22;6920;50.080;8.226;2022-07-29T03:24:29;16.80;99.90
13697;DHT22;6920;50.080;8.226;2022-07-29T03:29:24;16.60;99.90
13697;DHT22;6920;50.080;8.226;2022-07-29T03:31:52;16.60;99.90
13697;DHT22;6920;50.080;8.226;2022-07-29T03:36:46;16.70;99.90
13697;DHT22;6920;50.080;8.226;2022-07-29T03:39:18;16.80;99.90
13697;DHT22;6920;50.080;8.226;2022-07-29T03:41:48;16.80;99.90
13697;DHT22;6920;50.080;8.226;2022-07-29T03:44:17;16.80;99.90
13697;DHT22;6920;50.080;8.226;2022-07-29T03:46:47;16.80;99.90
13697;DHT22;6920;50.080;8.226;2022-07-29T03:49:16;16.90;99.90
13697;DHT22;6920;50.080;8.226;2022-07-29T03:51:45;16.80;99.90
13697;DHT22;6920;50.080;8.226;2022-07-29T03:54:14;16.80;99.90
13697;DHT22;6920;50.080;8.226;2022-07-29T03:56:43;16.80;99.90
13697;DHT22;6920;50.080;8.226;2022-07-29T03:59:13;16.60;99.90
13697;DHT22;6920;50.080;8.226;2022-07-29T04:01:40;16.60;99.90
13697;DHT22;6920;50.080;8.226;2022-07-29T04:04:08;16.60;99.90
13697;DHT22;6920;50.080;8.226;2022-07-29T04:06:39;16.70;99.90
13697;DHT22;6920;50.080;8.226;2022-07-29T04:09:07;16.60;99.90
13697;DHT22;6920;50.080;8.226;2022-07-29T04:11:36;16.60;99.90
13697;DHT22;6920;50.080;8.226;2022-07-29T04:14:04;16.50;99.90
13697;DHT22;6920;50.080;8.226;2022-07-29T04:16:32;16.50;99.90
13697;DHT22;6920;50.080;8.226;2022-07-29T04:18:59;16.60;99.90
13697;DHT22;6920;50.080;8.226;2022-07-29T04:21:26;16.60;99.90
13697;DHT22;6920;50.080;8.226;2022-07-29T04:23:53;16.70;99.90
13697;DHT22;6920;50.080;8.226;2022-07-29T04:26:20;16.60;99.90
13697;DHT22;6920;50.080;8.226;2022-07-29T04:28:49;16.60;99.90
13697;DHT22;6920;50.080;8.226;2022-07-29T04:31:16;16.60;99.90
13697;DHT22;6920;50.080;8.226;2022-07-29T04:33:43;16.70;99.90
13697;DHT22;6920;50.080;8.226;2022-07-29T04:36:10;16.70;99.90
13697;DHT22;6920;50.080;8.226;2022-07-29T04:38:38;16.80;99.90
13697;DHT22;6920;50.080;8.226;2022-07-29T04:41:05;16.80;99.90
13697;DHT22;6920;50.080;8.226;2022-07-29T04:43:33;16.80;99.90
13697;DHT22;6920;50.080;8.226;2022-07-29T04:46:03;16.90;99.90
13697;DHT22;6920;50.080;8.226;2022-07-29T04:48:30;17.00;99.90
13697;DHT22;6920;50.080;8.226;2022-07-29T04:50:57;16.90;99.90
13697;DHT22;6920;50.080;8.226;2022-07-29T04:53:24;16.90;99.90
13697;DHT22;6920;50.080;8.226;2022-07-29T04:55:51;16.90;99.90
13697;DHT22;6920;50.080;8.226;2022-07-29T04:58:18;17.00;99.90
13697;DHT22;6920;50.080;8.226;2022-07-29T05:00:45;17.00;99.90
13697;DHT22;6920;50.080;8.226;2022-07-29T05:03:13;17.10;99.90
13697;DHT22;6920;50.080;8.226;2022-07-29T05:05:40;17.00;99.90
13697;DHT22;6920;50.080;8.226;2022-07-29T05:08:07;17.00;99.90
13697;DHT22;6920;50.080;8.226;2022-07-29T05:10:34;17.10;99.90
13697;DHT22;6920;50.080;8.226;2022-07-29T05:13:04;17.10;99.90
13697;DHT22;6920;50.080;8.226;2022-07-29T05:15:31;17.20;99.90
13697;DHT22;6920;50.080;8.226;2022-07-29T05:20:27;17.20;99.90
13697;DHT22;6920;50.080;8.226;2022-07-29T05:22:55;17.30;99.90
13697;DHT22;6920;50.080;8.226;2022-07-29T05:25:22;17.30;99.90
13697;DHT22;6920;50.080;8.226;2022-07-29T05:27:49;17.50;99.90
13697;DHT22;6920;50.080;8.226;2022-07-29T05:30:16;17.60;99.90
13697;DHT22;6920;50.080;8.226;2022-07-29T05:32:43;17.60;99.90
13697;DHT22;6920;50.080;8.226;2022-07-29T05:37:39;17.80;99.90
13697;DHT22;6920;50.080;8.226;2022-07-29T05:40:07;18.00;99.90
13697;DHT22;6920;50.080;8.226;2022-07-29T05:42:34;18.10;99.90
13697;DHT22;6920;50.080;8.226;2022-07-29T05:45:02;18.20;99.90
13697;DHT22;6920;50.080;8.226;2022-07-29T05:47:29;18.20;99.90
13697;DHT22;6920;50.080;8.226;2022-07-29T05:49:56;18.30;99.90
13697;DHT22;6920;50.080;8.226;2022-07-29T05:52:23;18.30;99.90
13697;DHT22;6920;50.080;8.226;2022-07-29T05:54:51;18.40;99.90
13697;DHT22;6920;50.080;8.226;2022-07-29T05:57:20;18.50;99.90
13697;DHT22;6920;50.080;8.226;2022-07-29T05:59:48;18.50;99.90
13697;DHT22;6920;50.080;8.226;2022-07-29T06:04:43;18.80;99.90
13697;DHT22;6920;50.080;8.226;2022-07-29T06:07:10;18.90;99.90
13697;DHT22;6920;50.080;8.226;2022-07-29T06:12:06;19.20;99.90
13697;DHT22;6920;50.080;8.226;2022-07-29T06:14:33;19.40;99.90
13697;DHT22;6920;50.080;8.226;2022-07-29T06:17:00;19.60;99.90
13697;DHT22;6920;50.080;8.226;2022-07-29T06:21:55;20.00;99.90
13697;DHT22;6920;50.080;8.226;2022-07-29T06:24:22;20.10;99.90
13697;DHT22;6920;50.080;8.226;2022-07-29T06:26:49;20.20;99.90
13697;DHT22;6920;50.080;8.226;2022-07-29T06:29:17;20.40;99.90
13697;DHT22;6920;50.080;8.226;2022-07-29T06:34:11;20.80;99.90
13697;DHT22;6920;50.080;8.226;2022-07-29T06:36:38;21.00;99.90
13697;DHT22;6920;50.080;8.226;2022-07-29T06:41:33;21.50;99.90
13697;DHT22;6920;50.080;8.226;2022-07-29T06:44:01;22.20;99.90
13697;DHT22;6920;50.080;8.226;2022-07-29T06:46:29;22.70;99.90
13697;DHT22;6920;50.080;8.226;2022-07-29T06:48:56;23.00;99.90
13697;DHT22;6920;50.080;8.226;2022-07-29T06:51:23;23.40;99.90
13697;DHT22;6920;50.080;8.226;2022-07-29T06:53:51;23.50;99.90
13697;DHT22;6920;50.080;8.226;2022-07-29T06:58:46;23.70;99.90
13697;DHT22;6920;50.080;8.226;2022-07-29T07:03:41;23.60;99.90
13697;DHT22;6920;50.080;8.226;2022-07-29T07:06:08;23.40;99.90
13697;DHT22;6920;50.080;8.226;2022-07-29T07:08:35;23.20;99.90
13697;DHT22;6920;50.080;8.226;2022-07-29T07:11:02;23.20;99.90
13697;DHT22;6920;50.080;8.226;2022-07-29T07:13:29;23.30;99.90
13697;DHT22;6920;50.080;8.226;2022-07-29T07:16:00;23.50;99.90
13697;DHT22;6920;50.080;8.226;2022-07-29T07:18:27;23.60;99.90
13697;DHT22;6920;50.080;8.226;2022-07-29T07:20:56;23.40;99.90
13697;DHT22;6920;50.080;8.226;2022-07-29T07:23:23;24.10;99.90
13697;DHT22;6920;50.080;8.226;2022-07-29T07:25:50;24.10;99.90
13697;DHT22;6920;50.080;8.226;2022-07-29T07:28:18;24.50;99.90
13697;DHT22;6920;50.080;8.226;2022-07-29T07:30:45;24.90;99.90
13697;DHT22;6920;50.080;8.226;2022-07-29T07:33:12;25.20;99.90
13697;DHT22;6920;50.080;8.226;2022-07-29T07:35:40;25.30;99.90
13697;DHT22;6920;50.080;8.226;2022-07-29T07:38:08;25.10;99.90
13697;DHT22;6920;50.080;8.226;2022-07-29T07:40:35;25.30;99.90
13697;DHT22;6920;50.080;8.226;2022-07-29T07:45:30;25.60;99.90
13697;DHT22;6920;50.080;8.226;2022-07-29T07:50:25;25.60;99.90
13697;DHT22;6920;50.080;8.226;2022-07-29T07:52:54;25.90;99.90
13697;DHT22;6920;50.080;8.226;2022-07-29T07:55:24;25.60;99.90
13697;DHT22;6920;50.080;8.226;2022-07-29T07:57:52;25.90;99.90
13697;DHT22;6920;50.080;8.226;2022-07-29T08:00:19;26.30;98.90
13697;DHT22;6920;50.080;8.226;2022-07-29T08:02:46;26.70;98.90
13697;DHT22;6920;50.080;8.226;2022-07-29T08:05:13;26.80;96.60
13697;DHT22;6920;50.080;8.226;2022-07-29T08:07:43;26.50;98.80
13697;DHT22;6920;50.080;8.226;2022-07-29T08:10:10;27.10;98.30
13697;DHT22;6920;50.080;8.226;2022-07-29T08:12:39;27.00;97.50
13697;DHT22;6920;50.080;8.226;2022-07-29T08:15:07;27.20;97.70
13697;DHT22;6920;50.080;8.226;2022-07-29T08:20:03;27.40;98.20
13697;DHT22;6920;50.080;8.226;2022-07-29T08:22:30;27.80;96.80
13697;DHT22;6920;50.080;8.226;2022-07-29T08:24:57;27.90;97.20
13697;DHT22;6920;50.080;8.226;2022-07-29T08:27:24;27.80;96.70
13697;DHT22;6920;50.080;8.226;2022-07-29T08:29:53;27.70;96.90
13697;DHT22;6920;50.080;8.226;2022-07-29T08:32:21;27.60;97.40
13697;DHT22;6920;50.080;8.226;2022-07-29T08:34:48;27.60;97.50
13697;DHT22;6920;50.080;8.226;2022-07-29T08:37:15;27.40;96.10
13697;DHT22;6920;50.080;8.226;2022-07-29T08:42:10;26.50;98.70
13697;DHT22;6920;50.080;8.226;2022-07-29T08:44:37;26.70;97.20
13697;DHT22;6920;50.080;8.226;2022-07-29T08:47:06;26.50;97.20
13697;DHT22;6920;50.080;8.226;2022-07-29T08:49:34;26.60;97.00
13697;DHT22;6920;50.080;8.226;2022-07-29T08:52:02;26.50;98.40
13697;DHT22;6920;50.080;8.226;2022-07-29T08:54:30;26.40;98.50
13697;DHT22;6920;50.080;8.226;2022-07-29T08:56:57;26.50;96.70
13697;DHT22;6920;50.080;8.226;2022-07-29T08:59:25;26.80;97.40
13697;DHT22;6920;50.080;8.226;2022-07-29T09:01:54;27.30;96.40
13697;DHT22;6920;50.080;8.226;2022-07-29T09:04:24;28.00;95.50
13697;DHT22;6920;50.080;8.226;2022-07-29T09:06:54;28.30;94.50
13697;DHT22;6920;50.080;8.226;2022-07-29T09:09:23;28.60;94.30
13697;DHT22;6920;50.080;8.226;2022-07-29T09:11:50;28.80;95.00
13697;DHT22;6920;50.080;8.226;2022-07-29T09:14:18;28.80;95.80
13697;DHT22;6920;50.080;8.226;2022-07-29T09:16:47;28.40;95.90
13697;DHT22;6920;50.080;8.226;2022-07-29T09:19:27;28.10;95.90
13697;DHT22;6920;50.080;8.226;2022-07-29T09:21:56;27.50;96.90
13697;DHT22;6920;50.080;8.226;2022-07-29T09:24:36;27.10;97.90
13697;DHT22;6920;50.080;8.226;2022-07-29T09:27:20;27.20;97.80
13697;DHT22;6920;50.080;8.226;2022-07-29T09:29:54;28.10;96.40
13697;DHT22;6920;50.080;8.226;2022-07-29T09:32:21;28.30;96.70
13697;DHT22;6920;50.080;8.226;2022-07-29T09:34:50;28.60;96.20
13697;DHT22;6920;50.080;8.226;2022-07-29T09:37:26;28.80;95.80
13697;DHT22;6920;50.080;8.226;2022-07-29T09:42:28;28.90;96.10
13697;DHT22;6920;50.080;8.226;2022-07-29T09:47:22;29.30;94.70
13697;DHT22;6920;50.080;8.226;2022-07-29T09:50:08;29.20;95.20
13697;DHT22;6920;50.080;8.226;2022-07-29T09:52:45;29.50;94.50
13697;DHT22;6920;50.080;8.226;2022-07-29T09:55:12;29.40;94.80
13697;DHT22;6920;50.080;8.226;2022-07-29T09:57:39;29.00;95.10
13697;DHT22;6920;50.080;8.226;2022-07-29T10:00:08;28.70;94.80
13697;DHT22;6920;50.080;8.226;2022-07-29T10:02:38;28.10;95.00
13697;DHT22;6920;50.080;8.226;2022-07-29T10:05:15;27.80;95.60
13697;DHT22;6920;50.080;8.226;2022-07-29T10:07:44;28.60;96.20
13697;DHT22;6920;50.080;8.226;2022-07-29T10:10:19;28.80;95.50
13697;DHT22;6920;50.080;8.226;2022-07-29T10:12:52;28.50;95.20
13697;DHT22;6920;50.080;8.226;2022-07-29T10:15:22;29.00;95.70
13697;DHT22;6920;50.080;8.226;2022-07-29T10:17:50;29.60;95.80
13697;DHT22;6920;50.080;8.226;2022-07-29T10:20:19;30.40;93.70
13697;DHT22;6920;50.080;8.226;2022-07-29T10:22:47;30.30;93.10
13697;DHT22;6920;50.080;8.226;2022-07-29T10:25:15;30.80;94.10
13697;DHT22;6920;50.080;8.226;2022-07-29T10:27:43;30.90;93.50
13697;DHT22;6920;50.080;8.226;2022-07-29T10:30:11;30.30;93.50
13697;DHT22;6920;50.080;8.226;2022-07-29T10:32:51;30.00;93.00
13697;DHT22;6920;50.080;8.226;2022-07-29T10:35:32;30.00;94.00
13697;DHT22;6920;50.080;8.226;2022-07-29T10:38:17;30.40;93.90
13697;DHT22;6920;50.080;8.226;2022-07-29T10:40:57;30.30;92.50
13697;DHT22;6920;50.080;8.226;2022-07-29T10:43:47;30.10;93.50
13697;DHT22;6920;50.080;8.226;2022-07-29T10:46:15;30.00;93.10
13697;DHT22;6920;50.080;8.226;2022-07-29T10:49:04;29.90;93.80
13697;DHT22;6920;50.080;8.226;2022-07-29T10:52:01;30.20;93.50
13697;DHT22;6920;50.080;8.226;2022-07-29T10:54:46;30.60;94.60
13697;DHT22;6920;50.080;8.226;2022-07-29T10:57:21;30.70;94.70
13697;DHT22;6920;50.080;8.226;2022-07-29T11:02:45;31.30;92.80
13697;DHT22;6920;50.080;8.226;2022-07-29T11:05:18;31.30;92.80
13697;DHT22;6920;50.080;8.226;2022-07-29T11:08:22;31.70;92.20
13697;DHT22;6920;50.080;8.226;2022-07-29T11:11:30;31.80;92.50
13697;DHT22;6920;50.080;8.226;2022-07-29T11:13:47;31.20;92.20
13697;DHT22;6920;50.080;8.226;2022-07-29T11:16:17;31.10;92.00
13697;DHT22;6920;50.080;8.226;2022-07-29T11:19:18;31.10;91.40
13697;DHT22;6920;50.080;8.226;2022-07-29T11:21:46;31.10;92.90
13697;DHT22;6920;50.080;8.226;2022-07-29T11:24:18;31.50;91.90
13697;DHT22;6920;50.080;8.226;2022-07-29T11:27:06;31.70;92.00
13697;DHT22;6920;50.080;8.226;2022-07-29T11:29:35;32.20;91.60
13697;DHT22;6920;50.080;8.226;2022-07-29T11:32:11;32.20;92.50
13697;DHT22;6920;50.080;8.226;2022-07-29T11:37:20;32.60;91.40
13697;DHT22;6920;50.080;8.226;2022-07-29T11:42:52;32.60;90.40
13697;DHT22;6920;50.080;8.226;2022-07-29T11:45:31;32.30;90.00
13697;DHT22;6920;50.080;8.226;2022-07-29T11:48:18;32.30;90.40
13697;DHT22;6920;50.080;8.226;2022-07-29T11:50:45;32.10;90.60
13697;DHT22;6920;50.080;8.226;2022-07-29T11:53:13;32.30;91.50
13697;DHT22;6920;50.080;8.226;2022-07-29T11:55:41;35.70;91.80
13697;DHT22;6920;50.080;8.226;2022-07-29T11:58:10;32.40;90.00
13697;DHT22;6920;50.080;8.226;2022-07-29T12:00:39;32.30;90.40
13697;DHT22;6920;50.080;8.226;2022-07-29T12:03:07;32.30;91.00
13697;DHT22;6920;50.080;8.226;2022-07-29T12:05:38;32.50;90.20
13697;DHT22;6920;50.080;8.226;2022-07-29T12:08:13;31.50;91.60
13697;DHT22;6920;50.080;8.226;2022-07-29T12:10:42;32.20;90.90
13697;DHT22;6920;50.080;8.226;2022-07-29T12:13:10;32.30;90.70
13697;DHT22;6920;50.080;8.226;2022-07-29T12:15:38;32.20;89.60
13697;DHT22;6920;50.080;8.226;2022-07-29T12:18:12;32.70;90.70
13697;DHT22;6920;50.080;8.226;2022-07-29T12:23:08;32.90;87.70
13697;DHT22;6920;50.080;8.226;2022-07-29T12:25:38;32.80;87.80
13697;DHT22;6920;50.080;8.226;2022-07-29T12:28:07;32.90;86.70
13697;DHT22;6920;50.080;8.226;2022-07-29T12:30:40;33.20;87.10
13697;DHT22;6920;50.080;8.226;2022-07-29T12:33:17;33.20;86.30
13697;DHT22;6920;50.080;8.226;2022-07-29T12:35:47;33.40;85.60
13697;DHT22;6920;50.080;8.226;2022-07-29T12:38:17;33.10;85.60
13697;DHT22;6920;50.080;8.226;2022-07-29T12:40:46;32.70;86.50
13697;DHT22;6920;50.080;8.226;2022-07-29T12:43:14;31.80;86.30
13697;DHT22;6920;50.080;8.226;2022-07-29T12:45:45;31.20;89.00
13697;DHT22;6920;50.080;8.226;2022-07-29T12:48:13;31.10;88.80
13697;DHT22;6920;50.080;8.226;2022-07-29T12:50:54;31.30;88.00
13697;DHT22;6920;50.080;8.226;2022-07-29T12:53:21;31.20;88.30
13697;DHT22;6920;50.080;8.226;2022-07-29T12:55:50;30.90;87.20
13697;DHT22;6920;50.080;8.226;2022-07-29T12:58:31;30.90;88.30
13697;DHT22;6920;50.080;8.226;2022-07-29T13:01:06;30.20;91.60
13697;DHT22;6920;50.080;8.226;2022-07-29T13:03:53;29.00;94.70
13697;DHT22;6920;50.080;8.226;2022-07-29T13:06:32;27.80;97.80
13697;DHT22;6920;50.080;8.226;2022-07-29T13:09:03;27.90;99.10
13697;DHT22;6920;50.080;8.226;2022-07-29T13:11:31;28.20;98.10
13697;DHT22;6920;50.080;8.226;2022-07-29T13:13:58;27.70;97.20
13697;DHT22;6920;50.080;8.226;2022-07-29T13:19:08;27.70;98.00
13697;DHT22;6920;50.080;8.226;2022-07-29T13:21:36;28.30;97.70
13697;DHT22;6920;50.080;8.226;2022-07-29T13:24:04;28.10;96.60
13697;DHT22;6920;50.080;8.226;2022-07-29T13:26:32;27.80;97.10
13697;DHT22;6920;50.080;8.226;2022-07-29T13:28:59;27.40;97.10
13697;DHT22;6920;50.080;8.226;2022-07-29T13:31:27;27.60;97.50
13697;DHT22;6920;50.080;8.226;2022-07-29T13:33:54;27.70;97.30
13697;DHT22;6920;50.080;8.226;2022-07-29T13:36:22;27.70;98.30
13697;DHT22;6920;50.080;8.226;2022-07-29T13:38:49;27.70;98.10
13697;DHT22;6920;50.080;8.226;2022-07-29T13:43:43;27.50;99.70
13697;DHT22;6920;50.080;8.226;2022-07-29T13:46:11;27.40;99.50
13697;DHT22;6920;50.080;8.226;2022-07-29T13:48:39;27.10;99.40
13697;DHT22;6920;50.080;8.226;2022-07-29T13:51:06;27.00;99.80
13697;DHT22;6920;50.080;8.226;2022-07-29T13:56:00;26.80;99.60
13697;DHT22;6920;50.080;8.226;2022-07-29T14:00:55;27.00;99.20
13697;DHT22;6920;50.080;8.226;2022-07-29T14:03:22;26.80;99.90
13697;DHT22;6920;50.080;8.226;2022-07-29T14:05:51;27.00;99.90
13697;DHT22;6920;50.080;8.226;2022-07-29T14:08:18;27.20;99.90
13697;DHT22;6920;50.080;8.226;2022-07-29T14:10:45;27.30;99.90
13697;DHT22;6920;50.080;8.226;2022-07-29T14:13:12;27.50;99.90
13697;DHT22;6920;50.080;8.226;2022-07-29T14:15:40;27.50;99.90
13697;DHT22;6920;50.080;8.226;2022-07-29T14:18:07;27.40;99.90
13697;DHT22;6920;50.080;8.226;2022-07-29T14:20:34;27.20;99.90
13697;DHT22;6920;50.080;8.226;2022-07-29T14:23:02;27.30;99.90
13697;DHT22;6920;50.080;8.226;2022-07-29T14:25:29;27.10;99.90
13697;DHT22;6920;50.080;8.226;2022-07-29T14:30:23;27.00;99.90
13697;DHT22;6920;50.080;8.226;2022-07-29T14:32:50;26.80;99.90
13697;DHT22;6920;50.080;8.226;2022-07-29T14:35:17;26.80;99.90
13697;DHT22;6920;50.080;8.226;2022-07-29T14:37:44;26.80;99.90
13697;DHT22;6920;50.080;8.226;2022-07-29T14:40:13;26.90;99.90
13697;DHT22;6920;50.080;8.226;2022-07-29T14:42:40;26.80;99.90
13697;DHT22;6920;50.080;8.226;2022-07-29T14:45:08;26.40;99.90
13697;DHT22;6920;50.080;8.226;2022-07-29T14:47:36;26.20;99.90
13697;DHT22;6920;50.080;8.226;2022-07-29T14:50:04;26.30;99.90
13697;DHT22;6920;50.080;8.226;2022-07-29T14:52:32;26.20;99.90
13697;DHT22;6920;50.080;8.226;2022-07-29T14:54:59;26.00;99.90
13697;DHT22;6920;50.080;8.226;2022-07-29T14:57:27;25.80;99.90
13697;DHT22;6920;50.080;8.226;2022-07-29T14:59:54;25.70;99.90
13697;DHT22;6920;50.080;8.226;2022-07-29T15:02:22;25.40;99.90
13697;DHT22;6920;50.080;8.226;2022-07-29T15:04:49;25.10;99.90
13697;DHT22;6920;50.080;8.226;2022-07-29T15:07:16;25.00;99.90
13697;DHT22;6920;50.080;8.226;2022-07-29T15:09:43;24.70;99.90
13697;DHT22;6920;50.080;8.226;2022-07-29T15:12:11;24.30;99.90
13697;DHT22;6920;50.080;8.226;2022-07-29T15:14:39;24.10;99.90
13697;DHT22;6920;50.080;8.226;2022-07-29T15:17:06;23.80;99.90
13697;DHT22;6920;50.080;8.226;2022-07-29T15:19:33;23.50;99.90
13697;DHT22;6920;50.080;8.226;2022-07-29T15:22:01;23.00;99.90
13697;DHT22;6920;50.080;8.226;2022-07-29T15:26:57;22.80;99.90
13697;DHT22;6920;50.080;8.226;2022-07-29T15:29:24;22.60;99.90
13697;DHT22;6920;50.080;8.226;2022-07-29T15:31:52;22.20;99.90
13697;DHT22;6920;50.080;8.226;2022-07-29T15:34:19;22.10;99.90
13697;DHT22;6920;50.080;8.226;2022-07-29T15:36:49;22.30;99.90
13697;DHT22;6920;50.080;8.226;2022-07-29T15:39:16;22.50;99.90
13697;DHT22;6920;50.080;8.226;2022-07-29T15:41:43;22.70;99.90
13697;DHT22;6920;50.080;8.226;2022-07-29T15:44:10;22.60;99.90
13697;DHT22;6920;50.080;8.226;2022-07-29T15:46:37;22.80;99.90
13697;DHT22;6920;50.080;8.226;2022-07-29T15:49:22;23.20;99.90
13697;DHT22;6920;50.080;8.226;2022-07-29T15:51:56;23.20;99.90
13697;DHT22;6920;50.080;8.226;2022-07-29T15:54:24;22.60;99.90
13697;DHT22;6920;50.080;8.226;2022-07-29T15:56:51;22.50;99.90
13697;DHT22;6920;50.080;8.226;2022-07-29T15:59:18;22.60;99.90
13697;DHT22;6920;50.080;8.226;2022-07-29T16:01:45;22.90;99.90
13697;DHT22;6920;50.080;8.226;2022-07-29T16:04:12;23.10;99.90
13697;DHT22;6920;50.080;8.226;2022-07-29T16:06:41;23.40;99.90
13697;DHT22;6920;50.080;8.226;2022-07-29T16:09:08;23.40;99.90
13697;DHT22;6920;50.080;8.226;2022-07-29T16:11:35;23.50;99.90
13697;DHT22;6920;50.080;8.226;2022-07-29T16:14:02;23.60;99.90
13697;DHT22;6920;50.080;8.226;2022-07-29T16:16:29;23.50;99.90
13697;DHT22;6920;50.080;8.226;2022-07-29T16:18:57;23.50;99.90
13697;DHT22;6920;50.080;8.226;2022-07-29T16:21:24;23.60;99.90
13697;DHT22;6920;50.080;8.226;2022-07-29T16:23:52;23.50;99.90
13697;DHT22;6920;50.080;8.226;2022-07-29T16:26:19;23.40;99.90
13697;DHT22;6920;50.080;8.226;2022-07-29T16:28:46;23.40;99.90
13697;DHT22;6920;50.080;8.226;2022-07-29T16:33:41;23.30;99.90
13697;DHT22;6920;50.080;8.226;2022-07-29T16:36:08;23.60;99.90
13697;DHT22;6920;50.080;8.226;2022-07-29T16:38:35;23.70;99.90
13697;DHT22;6920;50.080;8.226;2022-07-29T16:41:04;23.70;99.90
13697;DHT22;6920;50.080;8.226;2022-07-29T16:43:30;23.80;99.90
13697;DHT22;6920;50.080;8.226;2022-07-29T16:45:58;23.80;99.90
13697;DHT22;6920;50.080;8.226;2022-07-29T16:48:25;23.80;99.90
13697;DHT22;6920;50.080;8.226;2022-07-29T16:50:52;23.80;99.90
13697;DHT22;6920;50.080;8.226;2022-07-29T16:53:19;23.90;99.90
13697;DHT22;6920;50.080;8.226;2022-07-29T16:55:46;23.80;99.90
13697;DHT22;6920;50.080;8.226;2022-07-29T16:58:14;23.70;99.90
13697;DHT22;6920;50.080;8.226;2022-07-29T17:00:41;23.30;99.90
13697;DHT22;6920;50.080;8.226;2022-07-29T17:03:08;23.30;99.90
13697;DHT22;6920;50.080;8.226;2022-07-29T17:08:03;23.40;99.90
13697;DHT22;6920;50.080;8.226;2022-07-29T17:10:30;23.40;99.90
13697;DHT22;6920;50.080;8.226;2022-07-29T17:15:26;23.10;99.90